sensor_id;sensor_type;location;lat;lon;timestamp;temperature;humidity
14061;DHT22;7105;43.616;1.434;2022-10-22T00:02:13;19.40;99.90
14061;DHT22;7105;43.616;1.434;2022-10-22T00:04:44;19.40;99.90
14061;DHT22;7105;43.616;1.434;2022-10-22T00:07:10;19.30;99.90
14061;DHT22;7105;43.616;1.434;2022-10-22T00:09:36;19.30;99.90
14061;DHT22;7105;43.616;1.434;2022-10-22T00:12:01;19.30;99.90
14061;DHT22;7105;43.616;1.434;2022-10-22T00:14:27;19.20;99.90
14061;DHT22;7105;43.616;1.434;2022-10-22T00:16:53;19.20;99.90
14061;DHT22;7105;43.616;1.434;2022-10-22T00:19:18;19.20;99.90
14061;DHT22;7105;43.616;1.434;2022-10-22T00:21:44;19.10;99.90
14061;DHT22;7105;43.616;1.434;2022-10-22T00:24:09;19.20;99.90
14061;DHT22;7105;43.616;1.434;2022-10-22T00:26:35;19.10;99.90
14061;DHT22;7105;43.616;1.434;2022-10-22T00:29:01;19.10;99.90
14061;DHT22;7105;43.616;1.434;2022-10-22T00:31:26;19.10;99.90
14061;DHT22;7105;43.616;1.434;2022-10-22T00:33:52;19.00;99.90
14061;DHT22;7105;43.616;1.434;2022-10-22T00:36:18;19.00;99.90
14061;DHT22;7105;43.616;1.434;2022-10-22T00:38:43;19.00;99.90
14061;DHT22;7105;43.616;1.434;2022-10-22T00:41:09;18.90;99.90
14061;DHT22;7105;43.616;1.434;2022-10-22T00:43:57;18.90;99.90
14061;DHT22;7105;43.616;1.434;2022-10-22T00:46:23;18.90;99.90
14061;DHT22;7105;43.616;1.434;2022-10-22T00:48:49;18.90;99.90
14061;DHT22;7105;43.616;1.434;2022-10-22T00:51:15;18.80;99.90
14061;DHT22;7105;43.616;1.434;2022-10-22T00:53:46;18.70;99.90
14061;DHT22;7105;43.616;1.434;2022-10-22T00:56:13;18.70;99.90
14061;DHT22;7105;43.616;1.434;2022-10-22T00:58:44;18.60;99.90
14061;DHT22;7105;43.616;1.434;2022-10-22T01:01:16;18.60;99.90
14061;DHT22;7105;43.616;1.434;2022-10-22T01:03:42;18.50;99.90
14061;DHT22;7105;43.616;1.434;2022-10-22T01:06:12;18.50;99.90
14061;DHT22;7105;43.616;1.434;2022-10-22T01:08:45;18.40;99.90
14061;DHT22;7105;43.616;1.434;2022-10-22T01:11:31;18.40;99.90
14061;DHT22;7105;43.616;1.434;2022-10-22T01:17:08;18.30;99.90
14061;DHT22;7105;43.616;1.434;2022-10-22T01:22:21;18.30;99.90
14061;DHT22;7105;43.616;1.434;2022-10-22T01:24:58;18.30;99.90
14061;DHT22;7105;43.616;1.434;2022-10-22T01:30:18;18.30;99.90
14061;DHT22;7105;43.616;1.434;2022-10-22T01:32:57;18.30;99.90
14061;DHT22;7105;43.616;1.434;2022-10-22T01:35:32;18.30;99.90
14061;DHT22;7105;43.616;1.434;2022-10-22T01:38:01;18.30;99.90
14061;DHT22;7105;43.616;1.434;2022-10-22T01:40:28;18.30;99.90
14061;DHT22;7105;43.616;1.434;2022-10-22T01:43:00;18.30;99.90
14061;DHT22;7105;43.616;1.434;2022-10-22T01:45:27;18.30;99.90
14061;DHT22;7105;43.616;1.434;2022-10-22T01:48:05;18.30;99.90
14061;DHT22;7105;43.616;1.434;2022-10-22T01:59:43;18.10;99.90
14061;DHT22;7105;43.616;1.434;2022-10-22T02:05:11;18.00;99.90
14061;DHT22;7105;43.616;1.434;2022-10-22T02:08:01;18.00;99.90
14061;DHT22;7105;43.616;1.434;2022-10-22T02:10:28;18.00;99.90
14061;DHT22;7105;43.616;1.434;2022-10-22T02:12:56;18.00;99.90
14061;DHT22;7105;43.616;1.434;2022-10-22T02:15:25;17.90;99.90
14061;DHT22;7105;43.616;1.434;2022-10-22T02:17:52;17.90;99.90
14061;DHT22;7105;43.616;1.434;2022-10-22T02:20:27;17.90;99.90
14061;DHT22;7105;43.616;1.434;2022-10-22T02:22:54;17.90;99.90
14061;DHT22;7105;43.616;1.434;2022-10-22T02:25:21;17.90;99.90
14061;DHT22;7105;43.616;1.434;2022-10-22T02:27:58;17.90;99.90
14061;DHT22;7105;43.616;1.434;2022-10-22T02:30:26;17.80;99.90
14061;DHT22;7105;43.616;1.434;2022-10-22T02:33:10;17.90;99.90
14061;DHT22;7105;43.616;1.434;2022-10-22T02:35:40;17.90;99.90
14061;DHT22;7105;43.616;1.434;2022-10-22T02:38:07;17.90;99.90
14061;DHT22;7105;43.616;1.434;2022-10-22T02:40:33;17.90;99.90
14061;DHT22;7105;43.616;1.434;2022-10-22T02:42:58;17.80;99.90
14061;DHT22;7105;43.616;1.434;2022-10-22T02:45:24;17.70;99.90
14061;DHT22;7105;43.616;1.434;2022-10-22T02:47:51;17.70;99.90
14061;DHT22;7105;43.616;1.434;2022-10-22T02:50:16;17.50;99.90
14061;DHT22;7105;43.616;1.434;2022-10-22T02:52:42;17.50;99.90
14061;DHT22;7105;43.616;1.434;2022-10-22T02:55:08;17.50;99.90
14061;DHT22;7105;43.616;1.434;2022-10-22T02:57:33;17.50;99.90
14061;DHT22;7105;43.616;1.434;2022-10-22T02:59:59;17.50;99.90
14061;DHT22;7105;43.616;1.434;2022-10-22T03:02:25;17.50;99.90
14061;DHT22;7105;43.616;1.434;2022-10-22T03:04:50;17.40;99.90
14061;DHT22;7105;43.616;1.434;2022-10-22T03:07:16;17.30;99.90
14061;DHT22;7105;43.616;1.434;2022-10-22T03:09:42;17.20;99.90
14061;DHT22;7105;43.616;1.434;2022-10-22T03:12:07;17.30;99.90
14061;DHT22;7105;43.616;1.434;2022-10-22T03:14:34;17.30;99.90
14061;DHT22;7105;43.616;1.434;2022-10-22T03:17:00;17.20;99.90
14061;DHT22;7105;43.616;1.434;2022-10-22T03:19:25;17.10;99.90
14061;DHT22;7105;43.616;1.434;2022-10-22T03:21:59;17.00;99.90
14061;DHT22;7105;43.616;1.434;2022-10-22T03:24:36;16.90;99.90
14061;DHT22;7105;43.616;1.434;2022-10-22T03:27:03;16.70;99.90
14061;DHT22;7105;43.616;1.434;2022-10-22T03:29:30;16.70;99.90
14061;DHT22;7105;43.616;1.434;2022-10-22T03:31:56;16.60;99.90
14061;DHT22;7105;43.616;1.434;2022-10-22T03:34:21;16.50;99.90
14061;DHT22;7105;43.616;1.434;2022-10-22T03:36:48;16.60;99.90
14061;DHT22;7105;43.616;1.434;2022-10-22T03:39:15;16.60;99.90
14061;DHT22;7105;43.616;1.434;2022-10-22T03:41:42;16.60;99.90
14061;DHT22;7105;43.616;1.434;2022-10-22T03:44:09;16.60;99.90
14061;DHT22;7105;43.616;1.434;2022-10-22T03:46:35;16.60;99.90
14061;DHT22;7105;43.616;1.434;2022-10-22T03:49:01;16.60;99.90
14061;DHT22;7105;43.616;1.434;2022-10-22T03:51:27;16.60;99.90
14061;DHT22;7105;43.616;1.434;2022-10-22T03:53:53;16.70;99.90
14061;DHT22;7105;43.616;1.434;2022-10-22T03:56:19;16.70;99.90
14061;DHT22;7105;43.616;1.434;2022-10-22T03:58:45;16.60;99.90
14061;DHT22;7105;43.616;1.434;2022-10-22T04:01:12;16.70;99.90
14061;DHT22;7105;43.616;1.434;2022-10-22T04:03:39;16.80;99.90
14061;DHT22;7105;43.616;1.434;2022-10-22T04:06:06;16.80;99.90
14061;DHT22;7105;43.616;1.434;2022-10-22T04:08:33;16.80;99.90
14061;DHT22;7105;43.616;1.434;2022-10-22T04:10:59;16.70;99.90
14061;DHT22;7105;43.616;1.434;2022-10-22T04:13:25;16.70;99.90
14061;DHT22;7105;43.616;1.434;2022-10-22T04:15:51;16.80;99.90
14061;DHT22;7105;43.616;1.434;2022-10-22T04:18:18;16.80;99.90
14061;DHT22;7105;43.616;1.434;2022-10-22T04:20:44;16.80;99.90
14061;DHT22;7105;43.616;1.434;2022-10-22T04:23:10;16.80;99.90
14061;DHT22;7105;43.616;1.434;2022-10-22T04:25:35;16.90;99.90
14061;DHT22;7105;43.616;1.434;2022-10-22T04:28:01;16.80;99.90
14061;DHT22;7105;43.616;1.434;2022-10-22T04:30:27;16.80;99.90
14061;DHT22;7105;43.616;1.434;2022-10-22T04:32:52;16.90;99.90
14061;DHT22;7105;43.616;1.434;2022-10-22T04:35:18;16.90;99.90
14061;DHT22;7105;43.616;1.434;2022-10-22T04:37:43;16.90;99.90
14061;DHT22;7105;43.616;1.434;2022-10-22T04:40:10;16.90;99.90
14061;DHT22;7105;43.616;1.434;2022-10-22T04:42:36;16.90;99.90
14061;DHT22;7105;43.616;1.434;2022-10-22T04:45:01;16.90;99.90
14061;DHT22;7105;43.616;1.434;2022-10-22T04:47:27;16.90;99.90
14061;DHT22;7105;43.616;1.434;2022-10-22T04:49:52;16.90;99.90
14061;DHT22;7105;43.616;1.434;2022-10-22T04:52:18;16.90;99.90
14061;DHT22;7105;43.616;1.434;2022-10-22T04:54:44;16.90;99.90
14061;DHT22;7105;43.616;1.434;2022-10-22T04:57:09;16.90;99.90
14061;DHT22;7105;43.616;1.434;2022-10-22T04:59:35;17.00;99.90
14061;DHT22;7105;43.616;1.434;2022-10-22T05:02:01;17.00;99.90
14061;DHT22;7105;43.616;1.434;2022-10-22T05:04:26;17.00;99.90
14061;DHT22;7105;43.616;1.434;2022-10-22T05:06:52;17.00;99.90
14061;DHT22;7105;43.616;1.434;2022-10-22T05:09:19;16.80;99.90
14061;DHT22;7105;43.616;1.434;2022-10-22T05:11:47;16.80;99.90
14061;DHT22;7105;43.616;1.434;2022-10-22T05:14:21;16.70;99.90
14061;DHT22;7105;43.616;1.434;2022-10-22T05:16:48;16.60;99.90
14061;DHT22;7105;43.616;1.434;2022-10-22T05:19:20;16.60;99.90
14061;DHT22;7105;43.616;1.434;2022-10-22T05:21:48;16.50;99.90
14061;DHT22;7105;43.616;1.434;2022-10-22T05:24:14;16.40;99.90
14061;DHT22;7105;43.616;1.434;2022-10-22T05:26:40;16.30;99.90
14061;DHT22;7105;43.616;1.434;2022-10-22T05:29:06;16.30;99.90
14061;DHT22;7105;43.616;1.434;2022-10-22T05:31:31;16.40;99.90
14061;DHT22;7105;43.616;1.434;2022-10-22T05:33:57;16.40;99.90
14061;DHT22;7105;43.616;1.434;2022-10-22T05:36:23;16.40;99.90
14061;DHT22;7105;43.616;1.434;2022-10-22T05:38:49;16.50;99.90
14061;DHT22;7105;43.616;1.434;2022-10-22T05:41:20;16.50;99.90
14061;DHT22;7105;43.616;1.434;2022-10-22T05:43:47;16.60;99.90
14061;DHT22;7105;43.616;1.434;2022-10-22T05:46:18;16.70;99.90
14061;DHT22;7105;43.616;1.434;2022-10-22T05:48:51;16.90;99.90
14061;DHT22;7105;43.616;1.434;2022-10-22T05:51:17;16.90;99.90
14061;DHT22;7105;43.616;1.434;2022-10-22T05:53:43;17.00;99.90
14061;DHT22;7105;43.616;1.434;2022-10-22T05:56:14;16.90;99.90
14061;DHT22;7105;43.616;1.434;2022-10-22T05:58:41;16.90;99.90
14061;DHT22;7105;43.616;1.434;2022-10-22T06:01:14;16.90;99.90
14061;DHT22;7105;43.616;1.434;2022-10-22T06:03:42;16.80;99.90
14061;DHT22;7105;43.616;1.434;2022-10-22T06:08:54;16.80;99.90
14061;DHT22;7105;43.616;1.434;2022-10-22T06:11:22;16.80;99.90
14061;DHT22;7105;43.616;1.434;2022-10-22T06:13:49;16.70;99.90
14061;DHT22;7105;43.616;1.434;2022-10-22T06:16:15;16.70;99.90
14061;DHT22;7105;43.616;1.434;2022-10-22T06:18:41;16.70;99.90
14061;DHT22;7105;43.616;1.434;2022-10-22T06:21:09;16.70;99.90
14061;DHT22;7105;43.616;1.434;2022-10-22T06:23:35;16.70;99.90
14061;DHT22;7105;43.616;1.434;2022-10-22T06:26:02;16.70;99.90
14061;DHT22;7105;43.616;1.434;2022-10-22T06:28:27;16.70;99.90
14061;DHT22;7105;43.616;1.434;2022-10-22T06:30:53;16.70;99.90
14061;DHT22;7105;43.616;1.434;2022-10-22T06:33:19;16.70;99.90
14061;DHT22;7105;43.616;1.434;2022-10-22T06:35:44;16.70;99.90
14061;DHT22;7105;43.616;1.434;2022-10-22T06:38:11;16.60;99.90
14061;DHT22;7105;43.616;1.434;2022-10-22T06:40:37;16.50;99.90
14061;DHT22;7105;43.616;1.434;2022-10-22T06:43:03;16.50;99.90
14061;DHT22;7105;43.616;1.434;2022-10-22T06:45:29;16.70;99.90
14061;DHT22;7105;43.616;1.434;2022-10-22T06:47:55;16.60;99.90
14061;DHT22;7105;43.616;1.434;2022-10-22T06:50:21;16.70;99.90
14061;DHT22;7105;43.616;1.434;2022-10-22T06:52:46;16.70;99.90
14061;DHT22;7105;43.616;1.434;2022-10-22T06:55:12;16.70;99.90
14061;DHT22;7105;43.616;1.434;2022-10-22T06:57:38;16.60;99.90
14061;DHT22;7105;43.616;1.434;2022-10-22T07:00:05;16.60;99.90
14061;DHT22;7105;43.616;1.434;2022-10-22T07:02:31;16.60;99.90
14061;DHT22;7105;43.616;1.434;2022-10-22T07:04:57;16.50;99.90
14061;DHT22;7105;43.616;1.434;2022-10-22T07:07:22;16.40;99.90
14061;DHT22;7105;43.616;1.434;2022-10-22T07:09:48;16.50;99.90
14061;DHT22;7105;43.616;1.434;2022-10-22T07:12:15;16.50;99.90
14061;DHT22;7105;43.616;1.434;2022-10-22T07:14:41;16.50;99.90
14061;DHT22;7105;43.616;1.434;2022-10-22T07:17:07;16.60;99.90
14061;DHT22;7105;43.616;1.434;2022-10-22T07:19:33;16.70;99.90
14061;DHT22;7105;43.616;1.434;2022-10-22T07:21:59;16.60;99.90
14061;DHT22;7105;43.616;1.434;2022-10-22T07:24:24;16.70;99.90
14061;DHT22;7105;43.616;1.434;2022-10-22T07:26:50;16.80;99.90
14061;DHT22;7105;43.616;1.434;2022-10-22T07:29:16;16.90;99.90
14061;DHT22;7105;43.616;1.434;2022-10-22T07:31:42;17.00;99.90
14061;DHT22;7105;43.616;1.434;2022-10-22T07:34:08;17.00;99.90
14061;DHT22;7105;43.616;1.434;2022-10-22T07:36:35;17.00;99.90
14061;DHT22;7105;43.616;1.434;2022-10-22T07:39:02;17.10;99.90
14061;DHT22;7105;43.616;1.434;2022-10-22T07:41:29;17.20;99.90
14061;DHT22;7105;43.616;1.434;2022-10-22T07:43:56;17.80;99.90
14061;DHT22;7105;43.616;1.434;2022-10-22T07:46:22;20.10;99.90
14061;DHT22;7105;43.616;1.434;2022-10-22T07:48:48;23.20;99.90
14061;DHT22;7105;43.616;1.434;2022-10-22T07:51:14;21.90;99.90
14061;DHT22;7105;43.616;1.434;2022-10-22T07:53:40;22.40;99.90
14061;DHT22;7105;43.616;1.434;2022-10-22T07:56:06;26.20;99.90
14061;DHT22;7105;43.616;1.434;2022-10-22T07:58:32;27.00;99.90
14061;DHT22;7105;43.616;1.434;2022-10-22T08:01:00;28.10;99.90
14061;DHT22;7105;43.616;1.434;2022-10-22T08:03:26;28.80;99.90
14061;DHT22;7105;43.616;1.434;2022-10-22T08:05:53;28.30;99.90
14061;DHT22;7105;43.616;1.434;2022-10-22T08:08:19;28.50;99.90
14061;DHT22;7105;43.616;1.434;2022-10-22T08:10:46;28.30;99.90
14061;DHT22;7105;43.616;1.434;2022-10-22T08:13:12;29.90;99.90
14061;DHT22;7105;43.616;1.434;2022-10-22T08:15:38;29.30;99.90
14061;DHT22;7105;43.616;1.434;2022-10-22T08:18:04;30.60;99.90
14061;DHT22;7105;43.616;1.434;2022-10-22T08:20:30;30.60;99.90
14061;DHT22;7105;43.616;1.434;2022-10-22T08:22:56;31.20;99.90
14061;DHT22;7105;43.616;1.434;2022-10-22T08:25:22;30.40;99.90
14061;DHT22;7105;43.616;1.434;2022-10-22T08:27:48;30.30;99.90
14061;DHT22;7105;43.616;1.434;2022-10-22T08:30:14;30.30;99.90
14061;DHT22;7105;43.616;1.434;2022-10-22T08:32:40;30.00;99.90
14061;DHT22;7105;43.616;1.434;2022-10-22T08:35:06;29.20;99.90
14061;DHT22;7105;43.616;1.434;2022-10-22T08:37:32;30.20;99.90
14061;DHT22;7105;43.616;1.434;2022-10-22T08:39:57;29.50;99.90
14061;DHT22;7105;43.616;1.434;2022-10-22T08:50:42;33.00;99.90
14061;DHT22;7105;43.616;1.434;2022-10-22T08:53:15;33.10;99.90
14061;DHT22;7105;43.616;1.434;2022-10-22T08:55:42;32.60;99.90
14061;DHT22;7105;43.616;1.434;2022-10-22T08:58:28;32.40;99.90
14061;DHT22;7105;43.616;1.434;2022-10-22T09:00:59;30.40;99.90
14061;DHT22;7105;43.616;1.434;2022-10-22T09:08:33;29.40;99.90
14061;DHT22;7105;43.616;1.434;2022-10-22T09:13:36;22.60;99.90
14061;DHT22;7105;43.616;1.434;2022-10-22T09:16:17;22.30;99.90
14061;DHT22;7105;43.616;1.434;2022-10-22T09:24:20;22.90;99.90
14061;DHT22;7105;43.616;1.434;2022-10-22T09:26:50;22.40;99.90
14061;DHT22;7105;43.616;1.434;2022-10-22T09:29:19;21.70;99.90
14061;DHT22;7105;43.616;1.434;2022-10-22T09:31:47;21.40;99.90
14061;DHT22;7105;43.616;1.434;2022-10-22T09:34:15;21.40;99.90
14061;DHT22;7105;43.616;1.434;2022-10-22T09:36:43;21.20;99.90
14061;DHT22;7105;43.616;1.434;2022-10-22T09:41:58;21.80;99.90
14061;DHT22;7105;43.616;1.434;2022-10-22T09:44:24;21.70;99.90
14061;DHT22;7105;43.616;1.434;2022-10-22T09:46:49;21.50;99.90
14061;DHT22;7105;43.616;1.434;2022-10-22T09:49:18;21.50;99.90
14061;DHT22;7105;43.616;1.434;2022-10-22T09:56:53;21.60;99.90
14061;DHT22;7105;43.616;1.434;2022-10-22T09:59:28;21.90;99.90
14061;DHT22;7105;43.616;1.434;2022-10-22T10:02:22;22.00;99.90
14061;DHT22;7105;43.616;1.434;2022-10-22T10:04:51;22.10;99.90
14061;DHT22;7105;43.616;1.434;2022-10-22T10:07:30;22.10;99.90
14061;DHT22;7105;43.616;1.434;2022-10-22T10:09:56;22.10;99.90
14061;DHT22;7105;43.616;1.434;2022-10-22T10:12:44;22.00;99.90
14061;DHT22;7105;43.616;1.434;2022-10-22T10:46:55;22.80;99.90
14061;DHT22;7105;43.616;1.434;2022-10-22T10:49:30;22.80;99.90
14061;DHT22;7105;43.616;1.434;2022-10-22T10:52:30;22.80;99.90
14061;DHT22;7105;43.616;1.434;2022-10-22T10:55:21;22.70;99.90
14061;DHT22;7105;43.616;1.434;2022-10-22T10:58:29;22.90;99.90
14061;DHT22;7105;43.616;1.434;2022-10-22T11:01:18;22.90;99.90
14061;DHT22;7105;43.616;1.434;2022-10-22T11:04:06;22.90;99.90
14061;DHT22;7105;43.616;1.434;2022-10-22T11:06:36;22.90;99.90
14061;DHT22;7105;43.616;1.434;2022-10-22T11:09:09;23.00;99.90
14061;DHT22;7105;43.616;1.434;2022-10-22T11:11:49;22.90;99.90
14061;DHT22;7105;43.616;1.434;2022-10-22T11:14:26;23.00;99.90
14061;DHT22;7105;43.616;1.434;2022-10-22T11:17:09;23.00;99.90
14061;DHT22;7105;43.616;1.434;2022-10-22T11:19:41;23.10;99.90
14061;DHT22;7105;43.616;1.434;2022-10-22T11:24:45;23.20;99.90
14061;DHT22;7105;43.616;1.434;2022-10-22T11:30:04;23.40;99.90
14061;DHT22;7105;43.616;1.434;2022-10-22T11:32:30;23.40;99.90
14061;DHT22;7105;43.616;1.434;2022-10-22T11:35:01;23.40;99.90
14061;DHT22;7105;43.616;1.434;2022-10-22T11:37:30;23.50;99.90
14061;DHT22;7105;43.616;1.434;2022-10-22T11:40:19;23.40;99.90
14061;DHT22;7105;43.616;1.434;2022-10-22T11:45:40;23.40;99.90
14061;DHT22;7105;43.616;1.434;2022-10-22T11:58:38;23.70;99.90
14061;DHT22;7105;43.616;1.434;2022-10-22T12:14:24;23.60;99.90
14061;DHT22;7105;43.616;1.434;2022-10-22T12:17:02;23.70;99.90
14061;DHT22;7105;43.616;1.434;2022-10-22T12:19:30;23.60;99.90
14061;DHT22;7105;43.616;1.434;2022-10-22T12:22:18;23.50;99.90
14061;DHT22;7105;43.616;1.434;2022-10-22T12:24:48;23.70;99.90
14061;DHT22;7105;43.616;1.434;2022-10-22T12:27:26;24.00;99.90
14061;DHT22;7105;43.616;1.434;2022-10-22T12:29:57;24.00;99.90
14061;DHT22;7105;43.616;1.434;2022-10-22T12:32:35;24.20;99.90
14061;DHT22;7105;43.616;1.434;2022-10-22T12:35:07;24.10;99.90
14061;DHT22;7105;43.616;1.434;2022-10-22T12:37:36;24.00;99.90
14061;DHT22;7105;43.616;1.434;2022-10-22T12:40:19;24.10;99.90
14061;DHT22;7105;43.616;1.434;2022-10-22T12:42:54;24.20;99.90
14061;DHT22;7105;43.616;1.434;2022-10-22T12:45:21;24.10;99.90
14061;DHT22;7105;43.616;1.434;2022-10-22T12:47:50;24.30;99.90
14061;DHT22;7105;43.616;1.434;2022-10-22T12:50:23;24.10;99.90
14061;DHT22;7105;43.616;1.434;2022-10-22T12:52:49;24.30;99.90
14061;DHT22;7105;43.616;1.434;2022-10-22T12:55:21;24.20;99.90
14061;DHT22;7105;43.616;1.434;2022-10-22T12:57:50;24.20;99.90
14061;DHT22;7105;43.616;1.434;2022-10-22T13:00:29;24.40;99.90
14061;DHT22;7105;43.616;1.434;2022-10-22T13:02:59;24.30;99.90
14061;DHT22;7105;43.616;1.434;2022-10-22T13:05:31;24.20;99.90
14061;DHT22;7105;43.616;1.434;2022-10-22T13:08:08;24.20;99.90
14061;DHT22;7105;43.616;1.434;2022-10-22T13:10:39;24.20;99.90
14061;DHT22;7105;43.616;1.434;2022-10-22T13:13:06;24.40;99.90
14061;DHT22;7105;43.616;1.434;2022-10-22T13:15:35;24.50;99.90
14061;DHT22;7105;43.616;1.434;2022-10-22T13:18:05;24.40;99.90
14061;DHT22;7105;43.616;1.434;2022-10-22T13:20:58;24.40;99.90
14061;DHT22;7105;43.616;1.434;2022-10-22T13:23:27;24.30;99.90
14061;DHT22;7105;43.616;1.434;2022-10-22T13:28:31;24.60;99.90
14061;DHT22;7105;43.616;1.434;2022-10-22T13:31:15;24.60;99.90
14061;DHT22;7105;43.616;1.434;2022-10-22T13:33:43;24.60;99.90
14061;DHT22;7105;43.616;1.434;2022-10-22T13:36:16;24.80;99.90
14061;DHT22;7105;43.616;1.434;2022-10-22T13:38:43;24.80;99.90
14061;DHT22;7105;43.616;1.434;2022-10-22T13:41:27;25.00;99.90
14061;DHT22;7105;43.616;1.434;2022-10-22T13:43:55;25.10;99.90
14061;DHT22;7105;43.616;1.434;2022-10-22T13:46:23;24.90;99.90
14061;DHT22;7105;43.616;1.434;2022-10-22T13:48:51;24.90;99.90
14061;DHT22;7105;43.616;1.434;2022-10-22T13:51:31;25.20;99.90
14061;DHT22;7105;43.616;1.434;2022-10-22T13:53:59;25.30;99.90
14061;DHT22;7105;43.616;1.434;2022-10-22T13:56:25;25.30;99.90
14061;DHT22;7105;43.616;1.434;2022-10-22T13:58:51;25.20;99.90
14061;DHT22;7105;43.616;1.434;2022-10-22T14:01:22;25.30;99.90
14061;DHT22;7105;43.616;1.434;2022-10-22T14:03:50;25.20;99.90
14061;DHT22;7105;43.616;1.434;2022-10-22T14:06:18;25.30;99.90
14061;DHT22;7105;43.616;1.434;2022-10-22T14:08:48;25.40;99.90
14061;DHT22;7105;43.616;1.434;2022-10-22T14:11:15;25.40;99.90
14061;DHT22;7105;43.616;1.434;2022-10-22T14:13:41;25.60;99.90
14061;DHT22;7105;43.616;1.434;2022-10-22T14:16:14;25.60;99.90
14061;DHT22;7105;43.616;1.434;2022-10-22T14:18:41;25.70;99.90
14061;DHT22;7105;43.616;1.434;2022-10-22T14:21:06;25.80;99.90
14061;DHT22;7105;43.616;1.434;2022-10-22T14:23:34;25.70;99.90
14061;DHT22;7105;43.616;1.434;2022-10-22T14:26:01;25.90;99.90
14061;DHT22;7105;43.616;1.434;2022-10-22T14:28:27;25.90;99.90
14061;DHT22;7105;43.616;1.434;2022-10-22T14:30:53;25.90;99.90
14061;DHT22;7105;43.616;1.434;2022-10-22T14:33:28;26.00;99.90
14061;DHT22;7105;43.616;1.434;2022-10-22T14:35:55;26.00;99.90
14061;DHT22;7105;43.616;1.434;2022-10-22T14:38:21;25.90;99.90
14061;DHT22;7105;43.616;1.434;2022-10-22T14:40:47;26.00;99.90
14061;DHT22;7105;43.616;1.434;2022-10-22T14:43:21;25.80;99.90
14061;DHT22;7105;43.616;1.434;2022-10-22T14:45:47;26.00;99.90
14061;DHT22;7105;43.616;1.434;2022-10-22T14:48:12;25.90;99.90
14061;DHT22;7105;43.616;1.434;2022-10-22T14:50:40;25.60;99.90
14061;DHT22;7105;43.616;1.434;2022-10-22T14:53:06;25.70;99.90
14061;DHT22;7105;43.616;1.434;2022-10-22T14:55:32;25.70;99.90
14061;DHT22;7105;43.616;1.434;2022-10-22T14:57:58;25.70;99.90
14061;DHT22;7105;43.616;1.434;2022-10-22T15:00:23;25.80;99.90
14061;DHT22;7105;43.616;1.434;2022-10-22T15:02:49;25.60;99.90
14061;DHT22;7105;43.616;1.434;2022-10-22T15:05:15;25.60;99.90
14061;DHT22;7105;43.616;1.434;2022-10-22T15:07:43;25.30;99.90
14061;DHT22;7105;43.616;1.434;2022-10-22T15:10:09;25.30;99.90
14061;DHT22;7105;43.616;1.434;2022-10-22T15:12:35;25.30;99.90
14061;DHT22;7105;43.616;1.434;2022-10-22T15:15:01;25.30;99.90
14061;DHT22;7105;43.616;1.434;2022-10-22T15:17:27;25.30;99.90
14061;DHT22;7105;43.616;1.434;2022-10-22T15:19:53;25.30;99.90
14061;DHT22;7105;43.616;1.434;2022-10-22T15:25:14;25.30;99.90
14061;DHT22;7105;43.616;1.434;2022-10-22T15:27:40;25.30;99.90
14061;DHT22;7105;43.616;1.434;2022-10-22T15:30:06;25.20;99.90
14061;DHT22;7105;43.616;1.434;2022-10-22T15:32:32;25.20;99.90
14061;DHT22;7105;43.616;1.434;2022-10-22T15:34:58;25.20;99.90
14061;DHT22;7105;43.616;1.434;2022-10-22T15:37:25;25.10;99.90
14061;DHT22;7105;43.616;1.434;2022-10-22T15:39:51;25.10;99.90
14061;DHT22;7105;43.616;1.434;2022-10-22T15:42:17;25.10;99.90
14061;DHT22;7105;43.616;1.434;2022-10-22T15:44:43;25.10;99.90
14061;DHT22;7105;43.616;1.434;2022-10-22T15:47:09;25.10;99.90
14061;DHT22;7105;43.616;1.434;2022-10-22T15:49:37;25.00;99.90
14061;DHT22;7105;43.616;1.434;2022-10-22T15:52:04;25.00;99.90
14061;DHT22;7105;43.616;1.434;2022-10-22T15:54:30;25.00;99.90
14061;DHT22;7105;43.616;1.434;2022-10-22T15:56:57;24.90;99.90
14061;DHT22;7105;43.616;1.434;2022-10-22T15:59:23;24.90;99.90
14061;DHT22;7105;43.616;1.434;2022-10-22T16:01:49;24.80;99.90
14061;DHT22;7105;43.616;1.434;2022-10-22T16:04:15;24.70;99.90
14061;DHT22;7105;43.616;1.434;2022-10-22T16:06:44;24.60;99.90
14061;DHT22;7105;43.616;1.434;2022-10-22T16:09:19;24.50;99.90
14061;DHT22;7105;43.616;1.434;2022-10-22T16:11:45;24.40;99.90
14061;DHT22;7105;43.616;1.434;2022-10-22T16:14:13;24.50;99.90
14061;DHT22;7105;43.616;1.434;2022-10-22T16:16:46;24.40;99.90
14061;DHT22;7105;43.616;1.434;2022-10-22T16:19:18;24.30;99.90
14061;DHT22;7105;43.616;1.434;2022-10-22T16:21:45;24.20;99.90
14061;DHT22;7105;43.616;1.434;2022-10-22T16:24:11;24.20;99.90
14061;DHT22;7105;43.616;1.434;2022-10-22T16:26:37;24.10;99.90
14061;DHT22;7105;43.616;1.434;2022-10-22T16:29:04;24.10;99.90
14061;DHT22;7105;43.616;1.434;2022-10-22T16:31:30;24.00;99.90
14061;DHT22;7105;43.616;1.434;2022-10-22T16:33:56;24.00;99.90
14061;DHT22;7105;43.616;1.434;2022-10-22T16:36:23;23.90;99.90
14061;DHT22;7105;43.616;1.434;2022-10-22T16:38:49;23.80;99.90
14061;DHT22;7105;43.616;1.434;2022-10-22T16:43:45;23.70;99.90
14061;DHT22;7105;43.616;1.434;2022-10-22T16:46:14;23.60;99.90
14061;DHT22;7105;43.616;1.434;2022-10-22T16:48:50;23.50;99.90
14061;DHT22;7105;43.616;1.434;2022-10-22T16:51:19;23.50;99.90
14061;DHT22;7105;43.616;1.434;2022-10-22T16:53:45;23.40;99.90
14061;DHT22;7105;43.616;1.434;2022-10-22T16:56:12;23.40;99.90
14061;DHT22;7105;43.616;1.434;2022-10-22T16:58:43;23.40;99.90
14061;DHT22;7105;43.616;1.434;2022-10-22T17:01:10;23.30;99.90
14061;DHT22;7105;43.616;1.434;2022-10-22T17:03:36;23.30;99.90
14061;DHT22;7105;43.616;1.434;2022-10-22T17:06:02;23.20;99.90
14061;DHT22;7105;43.616;1.434;2022-10-22T17:08:29;23.20;99.90
14061;DHT22;7105;43.616;1.434;2022-10-22T17:10:55;23.10;99.90
14061;DHT22;7105;43.616;1.434;2022-10-22T17:13:21;23.00;99.90
14061;DHT22;7105;43.616;1.434;2022-10-22T17:15:47;23.00;99.90
14061;DHT22;7105;43.616;1.434;2022-10-22T17:18:13;22.90;99.90
14061;DHT22;7105;43.616;1.434;2022-10-22T17:20:42;22.90;99.90
14061;DHT22;7105;43.616;1.434;2022-10-22T17:23:09;22.80;99.90
14061;DHT22;7105;43.616;1.434;2022-10-22T17:25:42;22.80;99.90
14061;DHT22;7105;43.616;1.434;2022-10-22T17:28:09;22.70;99.90
14061;DHT22;7105;43.616;1.434;2022-10-22T17:30:35;22.60;99.90
14061;DHT22;7105;43.616;1.434;2022-10-22T17:33:07;22.60;99.90
14061;DHT22;7105;43.616;1.434;2022-10-22T17:35:34;22.60;99.90
14061;DHT22;7105;43.616;1.434;2022-10-22T17:38:03;22.60;99.90
14061;DHT22;7105;43.616;1.434;2022-10-22T17:40:30;22.60;99.90
14061;DHT22;7105;43.616;1.434;2022-10-22T17:42:56;22.50;99.90
14061;DHT22;7105;43.616;1.434;2022-10-22T17:45:22;22.50;99.90
14061;DHT22;7105;43.616;1.434;2022-10-22T17:47:48;22.40;99.90
14061;DHT22;7105;43.616;1.434;2022-10-22T17:50:17;22.40;99.90
14061;DHT22;7105;43.616;1.434;2022-10-22T17:52:43;22.30;99.90
14061;DHT22;7105;43.616;1.434;2022-10-22T17:55:11;22.30;99.90
14061;DHT22;7105;43.616;1.434;2022-10-22T17:57:36;22.20;99.90
14061;DHT22;7105;43.616;1.434;2022-10-22T18:00:03;22.20;99.90